Terminal Aerodrome Forecast
Issued by NWS

Home | Current Version | Previous Version | Text Only | Print | Product List | Glossary On
Versions: 1 2 3 4 5 6 7 8 9 10 11 12
000
FTUS44 KLIX 010500
TAFMCB
TAF
KMCB 010520Z 0106/0206 13005KT P6SM SCT035 BKN100
     FM011100 14005KT P6SM OVC015
     FM011400 16007KT 3SM -SHRA OVC008
     FM011500 17008KT 2SM SHRA OVC008
     FM012000 21010KT 2SM SHRA OVC020
     FM020300 32012KT 3SM -SHRA OVC030=

USA.gov is the U.S. government's official web portal to all federal, state and local government web resources and services.